sensor_id;sensor_type;location;lat;lon;timestamp;P1;durP1;ratioP1;P2;durP2;ratioP2
6007;SDS011;3032;49.484;11.112;2023-04-25T00:00:50;4.70;;;4.30;;
6007;SDS011;3032;49.484;11.112;2023-04-25T00:03:17;5.82;;;4.40;;
6007;SDS011;3032;49.484;11.112;2023-04-25T00:05:43;7.85;;;4.85;;
6007;SDS011;3032;49.484;11.112;2023-04-25T00:08:09;6.13;;;4.63;;
6007;SDS011;3032;49.484;11.112;2023-04-25T00:10:34;5.30;;;4.90;;
6007;SDS011;3032;49.484;11.112;2023-04-25T00:13:00;4.90;;;4.50;;
6007;SDS011;3032;49.484;11.112;2023-04-25T00:15:28;5.65;;;4.65;;
6007;SDS011;3032;49.484;11.112;2023-04-25T00:17:55;6.82;;;4.68;;
6007;SDS011;3032;49.484;11.112;2023-04-25T00:20:21;6.10;;;4.40;;
6007;SDS011;3032;49.484;11.112;2023-04-25T00:22:48;5.70;;;4.30;;
6007;SDS011;3032;49.484;11.112;2023-04-25T00:25:14;4.72;;;4.32;;
6007;SDS011;3032;49.484;11.112;2023-04-25T00:27:40;4.23;;;3.93;;
6007;SDS011;3032;49.484;11.112;2023-04-25T00:30:07;6.65;;;4.50;;
6007;SDS011;3032;49.484;11.112;2023-04-25T00:32:33;5.10;;;4.60;;
6007;SDS011;3032;49.484;11.112;2023-04-25T00:34:58;3.93;;;3.47;;
6007;SDS011;3032;49.484;11.112;2023-04-25T00:37:24;4.37;;;3.97;;
6007;SDS011;3032;49.484;11.112;2023-04-25T00:39:50;4.30;;;3.90;;
6007;SDS011;3032;49.484;11.112;2023-04-25T00:42:16;4.43;;;4.10;;
6007;SDS011;3032;49.484;11.112;2023-04-25T00:44:42;4.23;;;3.83;;
6007;SDS011;3032;49.484;11.112;2023-04-25T00:47:08;4.30;;;3.90;;
6007;SDS011;3032;49.484;11.112;2023-04-25T00:49:35;5.00;;;4.40;;
6007;SDS011;3032;49.484;11.112;2023-04-25T00:52:01;4.97;;;4.57;;
6007;SDS011;3032;49.484;11.112;2023-04-25T00:54:27;4.40;;;4.00;;
6007;SDS011;3032;49.484;11.112;2023-04-25T00:56:52;4.73;;;4.33;;
6007;SDS011;3032;49.484;11.112;2023-04-25T00:59:19;4.03;;;3.63;;
6007;SDS011;3032;49.484;11.112;2023-04-25T01:01:45;4.28;;;3.95;;
6007;SDS011;3032;49.484;11.112;2023-04-25T01:04:11;4.37;;;3.97;;
6007;SDS011;3032;49.484;11.112;2023-04-25T01:06:36;4.53;;;4.13;;
6007;SDS011;3032;49.484;11.112;2023-04-25T01:09:02;4.17;;;3.70;;
6007;SDS011;3032;49.484;11.112;2023-04-25T01:11:29;4.15;;;3.80;;
6007;SDS011;3032;49.484;11.112;2023-04-25T01:13:55;4.63;;;3.93;;
6007;SDS011;3032;49.484;11.112;2023-04-25T01:16:21;3.60;;;3.40;;
6007;SDS011;3032;49.484;11.112;2023-04-25T01:18:48;3.53;;;3.33;;
6007;SDS011;3032;49.484;11.112;2023-04-25T01:21:16;3.58;;;3.28;;
6007;SDS011;3032;49.484;11.112;2023-04-25T01:23:42;4.03;;;3.60;;
6007;SDS011;3032;49.484;11.112;2023-04-25T01:26:08;3.60;;;3.30;;
6007;SDS011;3032;49.484;11.112;2023-04-25T01:28:35;3.67;;;3.40;;
6007;SDS011;3032;49.484;11.112;2023-04-25T01:31:01;3.83;;;3.42;;
6007;SDS011;3032;49.484;11.112;2023-04-25T01:33:29;4.20;;;3.90;;
6007;SDS011;3032;49.484;11.112;2023-04-25T01:35:55;4.20;;;3.80;;
6007;SDS011;3032;49.484;11.112;2023-04-25T01:38:20;4.70;;;3.33;;
6007;SDS011;3032;49.484;11.112;2023-04-25T01:40:46;4.10;;;3.80;;
6007;SDS011;3032;49.484;11.112;2023-04-25T01:43:13;4.20;;;3.80;;
6007;SDS011;3032;49.484;11.112;2023-04-25T01:45:40;4.55;;;3.38;;
6007;SDS011;3032;49.484;11.112;2023-04-25T01:48:10;4.93;;;3.90;;
6007;SDS011;3032;49.484;11.112;2023-04-25T01:50:37;3.75;;;3.30;;
6007;SDS011;3032;49.484;11.112;2023-04-25T01:53:04;4.25;;;3.95;;
6007;SDS011;3032;49.484;11.112;2023-04-25T01:55:29;4.40;;;4.00;;
6007;SDS011;3032;49.484;11.112;2023-04-25T01:57:55;4.17;;;3.87;;
6007;SDS011;3032;49.484;11.112;2023-04-25T02:00:21;4.07;;;3.77;;
6007;SDS011;3032;49.484;11.112;2023-04-25T02:02:47;5.15;;;3.92;;
6007;SDS011;3032;49.484;11.112;2023-04-25T02:05:15;3.50;;;3.30;;
6007;SDS011;3032;49.484;11.112;2023-04-25T02:07:41;3.75;;;3.45;;
6007;SDS011;3032;49.484;11.112;2023-04-25T02:10:07;4.40;;;4.00;;
6007;SDS011;3032;49.484;11.112;2023-04-25T02:12:33;3.47;;;3.28;;
6007;SDS011;3032;49.484;11.112;2023-04-25T02:14:59;3.60;;;3.30;;
6007;SDS011;3032;49.484;11.112;2023-04-25T02:17:24;4.00;;;3.70;;
6007;SDS011;3032;49.484;11.112;2023-04-25T02:19:51;3.60;;;3.40;;
6007;SDS011;3032;49.484;11.112;2023-04-25T02:22:16;4.00;;;3.70;;
6007;SDS011;3032;49.484;11.112;2023-04-25T02:24:42;5.07;;;3.83;;
6007;SDS011;3032;49.484;11.112;2023-04-25T02:27:08;4.37;;;4.00;;
6007;SDS011;3032;49.484;11.112;2023-04-25T02:29:33;4.13;;;3.83;;
6007;SDS011;3032;49.484;11.112;2023-04-25T02:31:59;5.85;;;4.20;;
6007;SDS011;3032;49.484;11.112;2023-04-25T02:34:25;4.10;;;3.80;;
6007;SDS011;3032;49.484;11.112;2023-04-25T02:36:51;3.90;;;3.60;;
6007;SDS011;3032;49.484;11.112;2023-04-25T02:39:16;4.10;;;3.80;;
6007;SDS011;3032;49.484;11.112;2023-04-25T02:41:42;4.43;;;4.03;;
6007;SDS011;3032;49.484;11.112;2023-04-25T02:44:07;5.60;;;4.33;;
6007;SDS011;3032;49.484;11.112;2023-04-25T02:46:33;5.50;;;5.00;;
6007;SDS011;3032;49.484;11.112;2023-04-25T02:48:59;5.03;;;4.53;;
6007;SDS011;3032;49.484;11.112;2023-04-25T02:51:24;5.60;;;4.10;;
6007;SDS011;3032;49.484;11.112;2023-04-25T02:53:51;4.32;;;3.92;;
6007;SDS011;3032;49.484;11.112;2023-04-25T02:56:16;5.20;;;4.70;;
6007;SDS011;3032;49.484;11.112;2023-04-25T02:58:42;5.27;;;4.63;;
6007;SDS011;3032;49.484;11.112;2023-04-25T03:01:07;6.20;;;5.20;;
6007;SDS011;3032;49.484;11.112;2023-04-25T03:03:33;5.13;;;4.73;;
6007;SDS011;3032;49.484;11.112;2023-04-25T03:05:59;5.83;;;4.70;;
6007;SDS011;3032;49.484;11.112;2023-04-25T03:08:24;7.13;;;5.50;;
6007;SDS011;3032;49.484;11.112;2023-04-25T03:10:51;5.82;;;5.32;;
6007;SDS011;3032;49.484;11.112;2023-04-25T03:13:20;6.35;;;5.75;;
6007;SDS011;3032;49.484;11.112;2023-04-25T03:15:45;7.17;;;6.47;;
6007;SDS011;3032;49.484;11.112;2023-04-25T03:18:11;7.27;;;6.57;;
6007;SDS011;3032;49.484;11.112;2023-04-25T03:20:37;8.30;;;7.50;;
6007;SDS011;3032;49.484;11.112;2023-04-25T03:23:04;10.13;;;7.35;;
6007;SDS011;3032;49.484;11.112;2023-04-25T03:25:30;7.60;;;6.50;;
6007;SDS011;3032;49.484;11.112;2023-04-25T03:27:55;8.90;;;7.37;;
6007;SDS011;3032;49.484;11.112;2023-04-25T03:30:21;8.00;;;7.30;;
6007;SDS011;3032;49.484;11.112;2023-04-25T03:32:46;7.90;;;6.83;;
6007;SDS011;3032;49.484;11.112;2023-04-25T03:35:12;8.33;;;7.50;;
6007;SDS011;3032;49.484;11.112;2023-04-25T03:37:37;8.20;;;7.40;;
6007;SDS011;3032;49.484;11.112;2023-04-25T03:40:03;7.80;;;7.10;;
6007;SDS011;3032;49.484;11.112;2023-04-25T03:42:29;8.60;;;7.70;;
6007;SDS011;3032;49.484;11.112;2023-04-25T03:44:55;7.87;;;7.07;;
6007;SDS011;3032;49.484;11.112;2023-04-25T03:47:20;9.33;;;7.63;;
6007;SDS011;3032;49.484;11.112;2023-04-25T03:49:46;7.87;;;7.07;;
6007;SDS011;3032;49.484;11.112;2023-04-25T03:52:11;8.00;;;7.30;;
6007;SDS011;3032;49.484;11.112;2023-04-25T03:54:37;7.80;;;6.83;;
6007;SDS011;3032;49.484;11.112;2023-04-25T03:57:02;10.40;;;6.93;;
6007;SDS011;3032;49.484;11.112;2023-04-25T03:59:28;7.80;;;7.00;;
6007;SDS011;3032;49.484;11.112;2023-04-25T04:01:53;11.10;;;6.93;;
6007;SDS011;3032;49.484;11.112;2023-04-25T04:04:19;7.40;;;6.70;;
6007;SDS011;3032;49.484;11.112;2023-04-25T04:06:45;9.23;;;7.07;;
6007;SDS011;3032;49.484;11.112;2023-04-25T04:09:10;8.40;;;6.67;;
6007;SDS011;3032;49.484;11.112;2023-04-25T04:11:37;6.63;;;5.90;;
6007;SDS011;3032;49.484;11.112;2023-04-25T04:14:06;7.80;;;6.55;;
6007;SDS011;3032;49.484;11.112;2023-04-25T04:16:32;7.00;;;6.22;;
6007;SDS011;3032;49.484;11.112;2023-04-25T04:18:58;7.37;;;6.73;;
6007;SDS011;3032;49.484;11.112;2023-04-25T04:21:23;8.27;;;7.40;;
6007;SDS011;3032;49.484;11.112;2023-04-25T04:23:49;7.33;;;6.53;;
6007;SDS011;3032;49.484;11.112;2023-04-25T04:26:15;8.30;;;6.83;;
6007;SDS011;3032;49.484;11.112;2023-04-25T04:28:43;7.95;;;7.07;;
6007;SDS011;3032;49.484;11.112;2023-04-25T04:31:09;7.50;;;6.80;;
6007;SDS011;3032;49.484;11.112;2023-04-25T04:33:35;12.50;;;7.50;;
6007;SDS011;3032;49.484;11.112;2023-04-25T04:36:01;8.40;;;7.35;;
6007;SDS011;3032;49.484;11.112;2023-04-25T04:38:28;8.57;;;7.75;;
6007;SDS011;3032;49.484;11.112;2023-04-25T04:40:54;10.90;;;7.28;;
6007;SDS011;3032;49.484;11.112;2023-04-25T04:43:20;8.68;;;6.47;;
6007;SDS011;3032;49.484;11.112;2023-04-25T04:45:47;9.82;;;7.30;;
6007;SDS011;3032;49.484;11.112;2023-04-25T04:48:14;8.02;;;7.22;;
6007;SDS011;3032;49.484;11.112;2023-04-25T04:50:40;9.13;;;7.40;;
6007;SDS011;3032;49.484;11.112;2023-04-25T04:53:09;8.23;;;7.43;;
6007;SDS011;3032;49.484;11.112;2023-04-25T04:55:35;10.23;;;7.77;;
6007;SDS011;3032;49.484;11.112;2023-04-25T04:58:01;8.77;;;7.90;;
6007;SDS011;3032;49.484;11.112;2023-04-25T05:00:26;8.50;;;7.30;;
6007;SDS011;3032;49.484;11.112;2023-04-25T05:02:54;9.35;;;8.25;;
6007;SDS011;3032;49.484;11.112;2023-04-25T05:05:20;8.93;;;8.02;;
6007;SDS011;3032;49.484;11.112;2023-04-25T05:07:45;9.77;;;7.37;;
6007;SDS011;3032;49.484;11.112;2023-04-25T05:10:11;9.20;;;7.77;;
6007;SDS011;3032;49.484;11.112;2023-04-25T05:12:36;8.57;;;6.73;;
6007;SDS011;3032;49.484;11.112;2023-04-25T05:15:02;8.50;;;7.60;;
6007;SDS011;3032;49.484;11.112;2023-04-25T05:17:28;8.67;;;7.80;;
6007;SDS011;3032;49.484;11.112;2023-04-25T05:19:53;9.60;;;7.40;;
6007;SDS011;3032;49.484;11.112;2023-04-25T05:22:19;9.03;;;8.10;;
6007;SDS011;3032;49.484;11.112;2023-04-25T05:24:45;10.50;;;8.43;;
6007;SDS011;3032;49.484;11.112;2023-04-25T05:27:10;9.50;;;8.50;;
6007;SDS011;3032;49.484;11.112;2023-04-25T05:29:36;9.13;;;8.00;;
6007;SDS011;3032;49.484;11.112;2023-04-25T05:32:01;9.53;;;8.53;;
6007;SDS011;3032;49.484;11.112;2023-04-25T05:34:27;9.93;;;7.87;;
6007;SDS011;3032;49.484;11.112;2023-04-25T05:36:52;9.87;;;7.80;;
6007;SDS011;3032;49.484;11.112;2023-04-25T05:39:18;8.00;;;7.20;;
6007;SDS011;3032;49.484;11.112;2023-04-25T05:41:44;7.93;;;7.13;;
6007;SDS011;3032;49.484;11.112;2023-04-25T05:44:09;8.63;;;7.73;;
6007;SDS011;3032;49.484;11.112;2023-04-25T05:46:35;8.33;;;7.53;;
6007;SDS011;3032;49.484;11.112;2023-04-25T05:49:01;7.10;;;6.40;;
6007;SDS011;3032;49.484;11.112;2023-04-25T05:51:27;9.93;;;7.40;;
6007;SDS011;3032;49.484;11.112;2023-04-25T05:53:52;8.20;;;7.00;;
6007;SDS011;3032;49.484;11.112;2023-04-25T05:56:18;7.60;;;6.80;;
6007;SDS011;3032;49.484;11.112;2023-04-25T05:58:43;7.63;;;6.90;;
6007;SDS011;3032;49.484;11.112;2023-04-25T06:01:09;8.00;;;7.20;;
6007;SDS011;3032;49.484;11.112;2023-04-25T06:03:35;8.43;;;7.50;;
6007;SDS011;3032;49.484;11.112;2023-04-25T06:06:02;8.90;;;7.13;;
6007;SDS011;3032;49.484;11.112;2023-04-25T06:08:28;7.40;;;6.27;;
6007;SDS011;3032;49.484;11.112;2023-04-25T06:10:54;8.67;;;6.97;;
6007;SDS011;3032;49.484;11.112;2023-04-25T06:13:19;7.80;;;7.00;;
6007;SDS011;3032;49.484;11.112;2023-04-25T06:15:45;8.17;;;7.37;;
6007;SDS011;3032;49.484;11.112;2023-04-25T06:18:11;10.33;;;6.53;;
6007;SDS011;3032;49.484;11.112;2023-04-25T06:20:36;9.60;;;6.80;;
6007;SDS011;3032;49.484;11.112;2023-04-25T06:23:02;7.13;;;6.40;;
6007;SDS011;3032;49.484;11.112;2023-04-25T06:25:27;7.33;;;6.60;;
6007;SDS011;3032;49.484;11.112;2023-04-25T06:27:53;10.50;;;7.30;;
6007;SDS011;3032;49.484;11.112;2023-04-25T06:30:18;9.63;;;6.73;;
6007;SDS011;3032;49.484;11.112;2023-04-25T06:32:47;8.77;;;7.78;;
6007;SDS011;3032;49.484;11.112;2023-04-25T06:35:12;8.77;;;7.43;;
6007;SDS011;3032;49.484;11.112;2023-04-25T06:37:38;8.30;;;7.47;;
6007;SDS011;3032;49.484;11.112;2023-04-25T06:40:04;8.23;;;7.20;;
6007;SDS011;3032;49.484;11.112;2023-04-25T06:42:30;8.10;;;7.30;;
6007;SDS011;3032;49.484;11.112;2023-04-25T06:44:56;8.23;;;7.23;;
6007;SDS011;3032;49.484;11.112;2023-04-25T06:47:21;13.10;;;7.80;;
6007;SDS011;3032;49.484;11.112;2023-04-25T06:49:47;8.90;;;7.60;;
6007;SDS011;3032;49.484;11.112;2023-04-25T06:52:12;8.80;;;8.00;;
6007;SDS011;3032;49.484;11.112;2023-04-25T06:54:38;9.40;;;7.80;;
6007;SDS011;3032;49.484;11.112;2023-04-25T06:57:03;9.63;;;7.90;;
6007;SDS011;3032;49.484;11.112;2023-04-25T06:59:29;9.00;;;7.20;;
6007;SDS011;3032;49.484;11.112;2023-04-25T07:01:54;8.30;;;7.43;;
6007;SDS011;3032;49.484;11.112;2023-04-25T07:04:20;7.90;;;7.10;;
6007;SDS011;3032;49.484;11.112;2023-04-25T07:06:46;8.67;;;7.87;;
6007;SDS011;3032;49.484;11.112;2023-04-25T07:09:13;8.88;;;7.85;;
6007;SDS011;3032;49.484;11.112;2023-04-25T07:11:38;8.07;;;7.27;;
6007;SDS011;3032;49.484;11.112;2023-04-25T07:14:04;9.10;;;7.00;;
6007;SDS011;3032;49.484;11.112;2023-04-25T07:16:30;10.83;;;6.10;;
6007;SDS011;3032;49.484;11.112;2023-04-25T07:18:55;5.50;;;5.00;;
6007;SDS011;3032;49.484;11.112;2023-04-25T07:21:21;6.37;;;5.77;;
6007;SDS011;3032;49.484;11.112;2023-04-25T07:23:46;5.90;;;5.40;;
6007;SDS011;3032;49.484;11.112;2023-04-25T07:26:12;5.03;;;4.63;;
6007;SDS011;3032;49.484;11.112;2023-04-25T07:28:38;3.60;;;3.30;;
6007;SDS011;3032;49.484;11.112;2023-04-25T07:31:03;4.07;;;3.10;;
6007;SDS011;3032;49.484;11.112;2023-04-25T07:33:30;3.30;;;3.10;;
6007;SDS011;3032;49.484;11.112;2023-04-25T07:35:55;6.60;;;3.47;;
6007;SDS011;3032;49.484;11.112;2023-04-25T07:38:21;6.23;;;3.83;;
6007;SDS011;3032;49.484;11.112;2023-04-25T07:40:47;6.10;;;3.60;;
6007;SDS011;3032;49.484;11.112;2023-04-25T07:43:14;6.13;;;3.70;;
6007;SDS011;3032;49.484;11.112;2023-04-25T07:45:42;4.43;;;4.13;;
6007;SDS011;3032;49.484;11.112;2023-04-25T07:48:08;6.10;;;3.72;;
6007;SDS011;3032;49.484;11.112;2023-04-25T07:50:33;3.80;;;3.50;;
6007;SDS011;3032;49.484;11.112;2023-04-25T07:52:59;5.73;;;3.40;;
6007;SDS011;3032;49.484;11.112;2023-04-25T07:55:25;5.37;;;4.30;;
6007;SDS011;3032;49.484;11.112;2023-04-25T07:57:51;3.95;;;3.55;;
6007;SDS011;3032;49.484;11.112;2023-04-25T08:00:16;3.73;;;3.43;;
6007;SDS011;3032;49.484;11.112;2023-04-25T08:02:42;4.37;;;3.80;;
6007;SDS011;3032;49.484;11.112;2023-04-25T08:05:08;5.17;;;4.67;;
6007;SDS011;3032;49.484;11.112;2023-04-25T08:07:36;5.35;;;3.75;;
6007;SDS011;3032;49.484;11.112;2023-04-25T08:10:06;4.35;;;3.83;;
6007;SDS011;3032;49.484;11.112;2023-04-25T08:12:32;5.97;;;4.55;;
6007;SDS011;3032;49.484;11.112;2023-04-25T08:14:58;5.90;;;5.00;;
6007;SDS011;3032;49.484;11.112;2023-04-25T08:17:23;5.03;;;4.53;;
6007;SDS011;3032;49.484;11.112;2023-04-25T08:19:49;5.30;;;4.10;;
6007;SDS011;3032;49.484;11.112;2023-04-25T08:22:15;4.03;;;3.67;;
6007;SDS011;3032;49.484;11.112;2023-04-25T08:24:41;6.30;;;4.00;;
6007;SDS011;3032;49.484;11.112;2023-04-25T08:27:06;4.97;;;3.92;;
6007;SDS011;3032;49.484;11.112;2023-04-25T08:29:32;8.57;;;4.10;;
6007;SDS011;3032;49.484;11.112;2023-04-25T08:31:58;3.97;;;3.67;;
6007;SDS011;3032;49.484;11.112;2023-04-25T08:34:24;5.53;;;4.33;;
6007;SDS011;3032;49.484;11.112;2023-04-25T08:36:50;3.67;;;3.30;;
6007;SDS011;3032;49.484;11.112;2023-04-25T08:39:16;3.80;;;3.37;;
6007;SDS011;3032;49.484;11.112;2023-04-25T08:41:42;3.90;;;3.60;;
6007;SDS011;3032;49.484;11.112;2023-04-25T08:44:09;4.15;;;3.75;;
6007;SDS011;3032;49.484;11.112;2023-04-25T08:46:37;3.92;;;3.50;;
6007;SDS011;3032;49.484;11.112;2023-04-25T08:49:05;5.32;;;3.92;;
6007;SDS011;3032;49.484;11.112;2023-04-25T08:51:32;4.85;;;3.47;;
6007;SDS011;3032;49.484;11.112;2023-04-25T08:54:09;6.65;;;4.45;;
6007;SDS011;3032;49.484;11.112;2023-04-25T08:56:40;5.43;;;4.30;;
6007;SDS011;3032;49.484;11.112;2023-04-25T08:59:08;6.10;;;5.50;;
6007;SDS011;3032;49.484;11.112;2023-04-25T09:01:35;5.35;;;4.90;;
6007;SDS011;3032;49.484;11.112;2023-04-25T09:04:01;6.30;;;5.70;;
6007;SDS011;3032;49.484;11.112;2023-04-25T09:06:27;8.87;;;5.80;;
6007;SDS011;3032;49.484;11.112;2023-04-25T09:08:54;6.85;;;6.10;;
6007;SDS011;3032;49.484;11.112;2023-04-25T09:11:19;6.60;;;6.00;;
6007;SDS011;3032;49.484;11.112;2023-04-25T09:13:45;11.10;;;6.83;;
6007;SDS011;3032;49.484;11.112;2023-04-25T09:16:11;6.80;;;6.10;;
6007;SDS011;3032;49.484;11.112;2023-04-25T09:18:36;7.67;;;5.97;;
6007;SDS011;3032;49.484;11.112;2023-04-25T09:23:45;6.80;;;4.90;;
6007;SDS011;3032;49.484;11.112;2023-04-25T09:26:15;6.03;;;5.53;;
6007;SDS011;3032;49.484;11.112;2023-04-25T09:28:42;5.43;;;4.88;;
6007;SDS011;3032;49.484;11.112;2023-04-25T09:31:11;5.20;;;4.70;;
6007;SDS011;3032;49.484;11.112;2023-04-25T09:33:37;3.78;;;3.47;;
6007;SDS011;3032;49.484;11.112;2023-04-25T09:36:04;4.60;;;4.20;;
6007;SDS011;3032;49.484;11.112;2023-04-25T09:38:32;3.05;;;2.85;;
6007;SDS011;3032;49.484;11.112;2023-04-25T09:41:06;3.95;;;3.65;;
6007;SDS011;3032;49.484;11.112;2023-04-25T09:43:32;4.40;;;4.10;;
6007;SDS011;3032;49.484;11.112;2023-04-25T09:45:58;4.13;;;3.93;;
6007;SDS011;3032;49.484;11.112;2023-04-25T09:48:25;4.05;;;3.85;;
6007;SDS011;3032;49.484;11.112;2023-04-25T09:51:08;4.15;;;3.70;;
6007;SDS011;3032;49.484;11.112;2023-04-25T09:53:35;3.83;;;3.53;;
6007;SDS011;3032;49.484;11.112;2023-04-25T09:56:06;4.40;;;4.00;;
6007;SDS011;3032;49.484;11.112;2023-04-25T09:58:34;4.15;;;3.47;;
6007;SDS011;3032;49.484;11.112;2023-04-25T10:01:01;4.50;;;4.20;;
6007;SDS011;3032;49.484;11.112;2023-04-25T10:03:35;4.78;;;3.90;;
6007;SDS011;3032;49.484;11.112;2023-04-25T10:06:06;3.55;;;3.17;;
6007;SDS011;3032;49.484;11.112;2023-04-25T10:08:34;4.00;;;3.40;;
6007;SDS011;3032;49.484;11.112;2023-04-25T10:11:02;3.58;;;3.28;;
6007;SDS011;3032;49.484;11.112;2023-04-25T10:13:31;2.92;;;2.72;;
6007;SDS011;3032;49.484;11.112;2023-04-25T10:15:58;2.90;;;2.58;;
6007;SDS011;3032;49.484;11.112;2023-04-25T10:18:25;2.95;;;2.53;;
6007;SDS011;3032;49.484;11.112;2023-04-25T10:20:53;3.90;;;2.47;;
6007;SDS011;3032;49.484;11.112;2023-04-25T10:23:21;2.00;;;1.90;;
6007;SDS011;3032;49.484;11.112;2023-04-25T10:25:48;3.67;;;2.10;;
6007;SDS011;3032;49.484;11.112;2023-04-25T10:28:15;2.47;;;2.00;;
6007;SDS011;3032;49.484;11.112;2023-04-25T10:30:59;1.90;;;1.73;;
6007;SDS011;3032;49.484;11.112;2023-04-25T10:33:30;1.95;;;1.77;;
6007;SDS011;3032;49.484;11.112;2023-04-25T10:36:09;2.00;;;1.90;;
6007;SDS011;3032;49.484;11.112;2023-04-25T10:38:36;2.00;;;1.83;;
6007;SDS011;3032;49.484;11.112;2023-04-25T10:41:03;2.05;;;1.95;;
6007;SDS011;3032;49.484;11.112;2023-04-25T10:43:40;4.10;;;1.92;;
6007;SDS011;3032;49.484;11.112;2023-04-25T10:46:13;9.73;;;2.50;;
6007;SDS011;3032;49.484;11.112;2023-04-25T10:48:52;2.00;;;1.90;;
6007;SDS011;3032;49.484;11.112;2023-04-25T10:51:29;3.50;;;2.22;;
6007;SDS011;3032;49.484;11.112;2023-04-25T10:56:27;2.60;;;2.37;;
6007;SDS011;3032;49.484;11.112;2023-04-25T10:59:04;2.20;;;1.80;;
6007;SDS011;3032;49.484;11.112;2023-04-25T11:01:39;2.30;;;2.10;;
6007;SDS011;3032;49.484;11.112;2023-04-25T11:04:24;2.22;;;1.90;;
6007;SDS011;3032;49.484;11.112;2023-04-25T11:09:23;2.53;;;1.80;;
6007;SDS011;3032;49.484;11.112;2023-04-25T11:11:53;3.38;;;1.95;;
6007;SDS011;3032;49.484;11.112;2023-04-25T11:14:20;2.75;;;2.28;;
6007;SDS011;3032;49.484;11.112;2023-04-25T11:16:46;3.47;;;2.10;;
6007;SDS011;3032;49.484;11.112;2023-04-25T11:19:12;3.53;;;1.97;;
6007;SDS011;3032;49.484;11.112;2023-04-25T11:21:38;3.00;;;1.70;;
6007;SDS011;3032;49.484;11.112;2023-04-25T11:24:03;2.03;;;1.57;;
6007;SDS011;3032;49.484;11.112;2023-04-25T11:26:29;1.80;;;1.63;;
6007;SDS011;3032;49.484;11.112;2023-04-25T11:28:58;2.45;;;1.90;;
6007;SDS011;3032;49.484;11.112;2023-04-25T11:31:28;3.97;;;2.00;;
6007;SDS011;3032;49.484;11.112;2023-04-25T11:33:56;2.92;;;2.10;;
6007;SDS011;3032;49.484;11.112;2023-04-25T11:36:23;2.30;;;2.10;;
6007;SDS011;3032;49.484;11.112;2023-04-25T11:38:50;6.03;;;2.15;;
6007;SDS011;3032;49.484;11.112;2023-04-25T11:41:17;2.50;;;2.20;;
6007;SDS011;3032;49.484;11.112;2023-04-25T11:43:43;2.33;;;2.13;;
6007;SDS011;3032;49.484;11.112;2023-04-25T11:46:09;3.50;;;2.60;;
6007;SDS011;3032;49.484;11.112;2023-04-25T11:48:38;2.10;;;2.00;;
6007;SDS011;3032;49.484;11.112;2023-04-25T11:51:04;2.42;;;2.30;;
6007;SDS011;3032;49.484;11.112;2023-04-25T11:53:29;2.47;;;2.23;;
6007;SDS011;3032;49.484;11.112;2023-04-25T11:55:55;2.77;;;2.20;;
6007;SDS011;3032;49.484;11.112;2023-04-25T11:58:21;2.20;;;1.77;;
6007;SDS011;3032;49.484;11.112;2023-04-25T12:00:46;1.77;;;1.67;;
6007;SDS011;3032;49.484;11.112;2023-04-25T12:03:12;1.47;;;1.20;;
6007;SDS011;3032;49.484;11.112;2023-04-25T12:05:38;2.10;;;1.50;;
6007;SDS011;3032;49.484;11.112;2023-04-25T12:08:13;1.77;;;1.30;;
6007;SDS011;3032;49.484;11.112;2023-04-25T12:10:41;1.73;;;1.63;;
6007;SDS011;3032;49.484;11.112;2023-04-25T12:13:22;1.60;;;1.50;;
6007;SDS011;3032;49.484;11.112;2023-04-25T12:15:52;2.55;;;1.60;;
6007;SDS011;3032;49.484;11.112;2023-04-25T12:18:21;1.85;;;1.75;;
6007;SDS011;3032;49.484;11.112;2023-04-25T12:20:51;1.70;;;1.60;;
6007;SDS011;3032;49.484;11.112;2023-04-25T12:23:20;1.98;;;1.60;;
6007;SDS011;3032;49.484;11.112;2023-04-25T12:25:51;1.65;;;1.58;;
6007;SDS011;3032;49.484;11.112;2023-04-25T12:28:23;5.17;;;2.10;;
6007;SDS011;3032;49.484;11.112;2023-04-25T12:30:56;1.70;;;1.60;;
6007;SDS011;3032;49.484;11.112;2023-04-25T12:33:30;2.03;;;1.80;;
6007;SDS011;3032;49.484;11.112;2023-04-25T12:36:00;2.42;;;1.90;;
6007;SDS011;3032;49.484;11.112;2023-04-25T12:38:35;1.75;;;1.50;;
6007;SDS011;3032;49.484;11.112;2023-04-25T12:41:02;1.77;;;1.67;;
6007;SDS011;3032;49.484;11.112;2023-04-25T12:43:28;1.57;;;1.40;;
6007;SDS011;3032;49.484;11.112;2023-04-25T12:45:54;4.70;;;1.83;;
6007;SDS011;3032;49.484;11.112;2023-04-25T12:48:20;1.90;;;1.80;;
6007;SDS011;3032;49.484;11.112;2023-04-25T12:50:47;2.40;;;2.30;;
6007;SDS011;3032;49.484;11.112;2023-04-25T12:53:14;2.10;;;2.00;;
6007;SDS011;3032;49.484;11.112;2023-04-25T12:55:40;2.10;;;1.90;;
6007;SDS011;3032;49.484;11.112;2023-04-25T12:58:06;2.20;;;2.10;;
6007;SDS011;3032;49.484;11.112;2023-04-25T13:00:32;2.27;;;2.10;;
6007;SDS011;3032;49.484;11.112;2023-04-25T13:02:58;2.83;;;2.67;;
6007;SDS011;3032;49.484;11.112;2023-04-25T13:05:24;1.87;;;1.77;;
6007;SDS011;3032;49.484;11.112;2023-04-25T13:07:50;2.63;;;2.42;;
6007;SDS011;3032;49.484;11.112;2023-04-25T13:10:16;2.70;;;2.60;;
6007;SDS011;3032;49.484;11.112;2023-04-25T13:12:42;4.47;;;2.20;;
6007;SDS011;3032;49.484;11.112;2023-04-25T13:15:09;1.90;;;1.80;;
6007;SDS011;3032;49.484;11.112;2023-04-25T13:17:36;2.50;;;2.40;;
6007;SDS011;3032;49.484;11.112;2023-04-25T13:20:03;2.78;;;2.58;;
6007;SDS011;3032;49.484;11.112;2023-04-25T13:22:33;2.05;;;1.90;;
6007;SDS011;3032;49.484;11.112;2023-04-25T13:25:03;2.53;;;2.33;;
6007;SDS011;3032;49.484;11.112;2023-04-25T13:27:30;2.00;;;1.90;;
6007;SDS011;3032;49.484;11.112;2023-04-25T13:29:57;2.03;;;1.92;;
6007;SDS011;3032;49.484;11.112;2023-04-25T13:32:23;5.33;;;2.50;;
6007;SDS011;3032;49.484;11.112;2023-04-25T13:34:48;2.40;;;2.20;;
6007;SDS011;3032;49.484;11.112;2023-04-25T13:37:16;2.83;;;2.70;;
6007;SDS011;3032;49.484;11.112;2023-04-25T13:39:41;2.80;;;2.60;;
6007;SDS011;3032;49.484;11.112;2023-04-25T13:42:07;3.33;;;2.43;;
6007;SDS011;3032;49.484;11.112;2023-04-25T13:44:32;2.60;;;2.37;;
6007;SDS011;3032;49.484;11.112;2023-04-25T13:46:58;2.30;;;2.20;;
6007;SDS011;3032;49.484;11.112;2023-04-25T13:49:25;2.83;;;2.63;;
6007;SDS011;3032;49.484;11.112;2023-04-25T13:51:51;4.70;;;2.93;;
6007;SDS011;3032;49.484;11.112;2023-04-25T13:54:16;3.27;;;2.67;;
6007;SDS011;3032;49.484;11.112;2023-04-25T13:56:42;4.20;;;2.77;;
6007;SDS011;3032;49.484;11.112;2023-04-25T13:59:08;2.57;;;2.37;;
6007;SDS011;3032;49.484;11.112;2023-04-25T14:01:33;2.60;;;2.20;;
6007;SDS011;3032;49.484;11.112;2023-04-25T14:04:00;2.63;;;2.47;;
6007;SDS011;3032;49.484;11.112;2023-04-25T14:06:26;2.45;;;2.25;;
6007;SDS011;3032;49.484;11.112;2023-04-25T14:08:53;2.70;;;2.47;;
6007;SDS011;3032;49.484;11.112;2023-04-25T14:11:19;2.23;;;2.13;;
6007;SDS011;3032;49.484;11.112;2023-04-25T14:13:45;2.80;;;2.57;;
6007;SDS011;3032;49.484;11.112;2023-04-25T14:16:10;2.50;;;2.30;;
6007;SDS011;3032;49.484;11.112;2023-04-25T14:18:36;3.40;;;3.10;;
6007;SDS011;3032;49.484;11.112;2023-04-25T14:21:02;3.37;;;2.70;;
6007;SDS011;3032;49.484;11.112;2023-04-25T14:23:27;3.10;;;2.90;;
6007;SDS011;3032;49.484;11.112;2023-04-25T14:25:53;3.40;;;3.00;;
6007;SDS011;3032;49.484;11.112;2023-04-25T14:28:19;2.83;;;2.73;;
6007;SDS011;3032;49.484;11.112;2023-04-25T14:30:44;3.15;;;2.85;;
6007;SDS011;3032;49.484;11.112;2023-04-25T14:33:10;3.07;;;2.97;;
6007;SDS011;3032;49.484;11.112;2023-04-25T14:35:36;4.35;;;2.92;;
6007;SDS011;3032;49.484;11.112;2023-04-25T14:38:02;4.28;;;3.00;;
6007;SDS011;3032;49.484;11.112;2023-04-25T14:40:28;3.03;;;2.60;;
6007;SDS011;3032;49.484;11.112;2023-04-25T14:42:53;5.20;;;2.93;;
6007;SDS011;3032;49.484;11.112;2023-04-25T14:45:19;4.20;;;3.03;;
6007;SDS011;3032;49.484;11.112;2023-04-25T14:47:45;2.57;;;2.37;;
6007;SDS011;3032;49.484;11.112;2023-04-25T14:50:10;3.27;;;2.97;;
6007;SDS011;3032;49.484;11.112;2023-04-25T14:52:36;3.07;;;2.80;;
6007;SDS011;3032;49.484;11.112;2023-04-25T14:55:02;3.67;;;3.37;;
6007;SDS011;3032;49.484;11.112;2023-04-25T14:57:32;2.85;;;2.65;;
6007;SDS011;3032;49.484;11.112;2023-04-25T14:59:58;3.17;;;2.88;;
6007;SDS011;3032;49.484;11.112;2023-04-25T15:02:24;3.47;;;2.60;;
6007;SDS011;3032;49.484;11.112;2023-04-25T15:04:49;3.47;;;2.40;;